sensor_id;sensor_type;location;lat;lon;timestamp;P1;durP1;ratioP1;P2;durP2;ratioP2
74320;SDS011;62738;45.772;4.804;2023-02-15T00:01:52;30.90;;;14.50;;
74320;SDS011;62738;45.772;4.804;2023-02-15T00:04:20;30.75;;;14.13;;
74320;SDS011;62738;45.772;4.804;2023-02-15T00:06:49;26.55;;;14.23;;
74320;SDS011;62738;45.772;4.804;2023-02-15T00:09:16;27.88;;;13.63;;
74320;SDS011;62738;45.772;4.804;2023-02-15T00:11:43;33.95;;;15.40;;
74320;SDS011;62738;45.772;4.804;2023-02-15T00:14:17;32.78;;;15.30;;
74320;SDS011;62738;45.772;4.804;2023-02-15T00:16:49;27.90;;;14.35;;
74320;SDS011;62738;45.772;4.804;2023-02-15T00:19:18;30.33;;;14.35;;
74320;SDS011;62738;45.772;4.804;2023-02-15T00:21:47;26.85;;;14.05;;
74320;SDS011;62738;45.772;4.804;2023-02-15T00:24:15;27.90;;;13.65;;
74320;SDS011;62738;45.772;4.804;2023-02-15T00:26:43;30.23;;;14.60;;
74320;SDS011;62738;45.772;4.804;2023-02-15T00:29:12;27.15;;;14.73;;
74320;SDS011;62738;45.772;4.804;2023-02-15T00:31:39;26.60;;;13.40;;
74320;SDS011;62738;45.772;4.804;2023-02-15T00:34:14;27.50;;;14.10;;
74320;SDS011;62738;45.772;4.804;2023-02-15T00:36:43;27.67;;;13.88;;
74320;SDS011;62738;45.772;4.804;2023-02-15T00:39:10;24.90;;;13.68;;
74320;SDS011;62738;45.772;4.804;2023-02-15T00:41:37;29.88;;;14.60;;
74320;SDS011;62738;45.772;4.804;2023-02-15T00:44:07;33.65;;;14.18;;
74320;SDS011;62738;45.772;4.804;2023-02-15T00:46:35;31.27;;;14.57;;
74320;SDS011;62738;45.772;4.804;2023-02-15T00:49:02;26.92;;;15.02;;
74320;SDS011;62738;45.772;4.804;2023-02-15T00:51:32;29.95;;;15.13;;
74320;SDS011;62738;45.772;4.804;2023-02-15T00:53:59;31.25;;;14.82;;
74320;SDS011;62738;45.772;4.804;2023-02-15T00:56:26;26.08;;;14.05;;
74320;SDS011;62738;45.772;4.804;2023-02-15T00:58:54;30.88;;;14.80;;
74320;SDS011;62738;45.772;4.804;2023-02-15T01:03:57;35.17;;;15.52;;
74320;SDS011;62738;45.772;4.804;2023-02-15T01:06:24;30.17;;;14.50;;
74320;SDS011;62738;45.772;4.804;2023-02-15T01:08:50;30.85;;;14.65;;
74320;SDS011;62738;45.772;4.804;2023-02-15T01:11:18;29.38;;;14.13;;
74320;SDS011;62738;45.772;4.804;2023-02-15T01:13:54;30.30;;;15.07;;
74320;SDS011;62738;45.772;4.804;2023-02-15T01:16:23;30.92;;;15.10;;
74320;SDS011;62738;45.772;4.804;2023-02-15T01:18:51;27.42;;;14.45;;
74320;SDS011;62738;45.772;4.804;2023-02-15T01:21:19;31.63;;;15.35;;
74320;SDS011;62738;45.772;4.804;2023-02-15T01:23:47;30.00;;;14.02;;
74320;SDS011;62738;45.772;4.804;2023-02-15T01:26:14;28.88;;;14.43;;
74320;SDS011;62738;45.772;4.804;2023-02-15T01:28:41;28.75;;;14.65;;
74320;SDS011;62738;45.772;4.804;2023-02-15T01:31:09;29.63;;;14.32;;
74320;SDS011;62738;45.772;4.804;2023-02-15T01:33:38;29.10;;;15.00;;
74320;SDS011;62738;45.772;4.804;2023-02-15T01:36:05;27.60;;;14.27;;
74320;SDS011;62738;45.772;4.804;2023-02-15T01:38:32;25.95;;;13.70;;
74320;SDS011;62738;45.772;4.804;2023-02-15T01:41:05;27.60;;;14.25;;
74320;SDS011;62738;45.772;4.804;2023-02-15T01:43:53;29.95;;;13.98;;
74320;SDS011;62738;45.772;4.804;2023-02-15T01:46:24;29.20;;;14.93;;
74320;SDS011;62738;45.772;4.804;2023-02-15T01:49:01;28.35;;;14.73;;
74320;SDS011;62738;45.772;4.804;2023-02-15T01:51:35;37.33;;;15.50;;
74320;SDS011;62738;45.772;4.804;2023-02-15T01:54:09;27.48;;;14.82;;
74320;SDS011;62738;45.772;4.804;2023-02-15T01:56:43;28.42;;;14.73;;
74320;SDS011;62738;45.772;4.804;2023-02-15T01:59:12;28.50;;;14.05;;
74320;SDS011;62738;45.772;4.804;2023-02-15T02:04:21;30.23;;;14.27;;
74320;SDS011;62738;45.772;4.804;2023-02-15T02:06:56;30.55;;;14.55;;
74320;SDS011;62738;45.772;4.804;2023-02-15T02:09:23;26.77;;;14.48;;
74320;SDS011;62738;45.772;4.804;2023-02-15T02:11:50;28.08;;;13.45;;
74320;SDS011;62738;45.772;4.804;2023-02-15T02:14:18;27.00;;;13.00;;
74320;SDS011;62738;45.772;4.804;2023-02-15T02:19:59;27.95;;;14.90;;
74320;SDS011;62738;45.772;4.804;2023-02-15T02:34:32;29.95;;;13.95;;
74320;SDS011;62738;45.772;4.804;2023-02-15T02:37:12;25.40;;;13.82;;
74320;SDS011;62738;45.772;4.804;2023-02-15T02:39:52;28.45;;;14.82;;
74320;SDS011;62738;45.772;4.804;2023-02-15T02:42:35;27.42;;;14.80;;
74320;SDS011;62738;45.772;4.804;2023-02-15T02:45:20;27.00;;;14.75;;
74320;SDS011;62738;45.772;4.804;2023-02-15T02:48:21;30.92;;;14.73;;
74320;SDS011;62738;45.772;4.804;2023-02-15T02:50:50;32.75;;;15.07;;
74320;SDS011;62738;45.772;4.804;2023-02-15T02:53:17;27.00;;;14.43;;
74320;SDS011;62738;45.772;4.804;2023-02-15T02:58:36;30.50;;;14.07;;
74320;SDS011;62738;45.772;4.804;2023-02-15T03:03:47;25.60;;;14.00;;
74320;SDS011;62738;45.772;4.804;2023-02-15T03:06:19;29.27;;;15.52;;
74320;SDS011;62738;45.772;4.804;2023-02-15T03:08:55;26.10;;;13.68;;
74320;SDS011;62738;45.772;4.804;2023-02-15T03:11:28;27.45;;;14.55;;
74320;SDS011;62738;45.772;4.804;2023-02-15T03:13:56;26.80;;;14.27;;
74320;SDS011;62738;45.772;4.804;2023-02-15T03:16:23;28.05;;;14.88;;
74320;SDS011;62738;45.772;4.804;2023-02-15T03:19:07;28.08;;;13.93;;
74320;SDS011;62738;45.772;4.804;2023-02-15T03:21:42;30.52;;;13.95;;
74320;SDS011;62738;45.772;4.804;2023-02-15T03:24:27;26.52;;;14.55;;
74320;SDS011;62738;45.772;4.804;2023-02-15T03:26:59;24.38;;;14.00;;
74320;SDS011;62738;45.772;4.804;2023-02-15T03:29:30;24.98;;;13.68;;
74320;SDS011;62738;45.772;4.804;2023-02-15T03:31:59;27.42;;;14.40;;
74320;SDS011;62738;45.772;4.804;2023-02-15T03:34:29;27.33;;;13.95;;
74320;SDS011;62738;45.772;4.804;2023-02-15T03:36:58;28.30;;;14.45;;
74320;SDS011;62738;45.772;4.804;2023-02-15T03:39:34;27.50;;;14.55;;
74320;SDS011;62738;45.772;4.804;2023-02-15T03:45:01;26.02;;;13.88;;
74320;SDS011;62738;45.772;4.804;2023-02-15T03:47:38;24.92;;;14.07;;
74320;SDS011;62738;45.772;4.804;2023-02-15T03:50:20;27.90;;;14.05;;
74320;SDS011;62738;45.772;4.804;2023-02-15T03:53:10;29.58;;;14.40;;
74320;SDS011;62738;45.772;4.804;2023-02-15T03:55:40;28.17;;;14.50;;
74320;SDS011;62738;45.772;4.804;2023-02-15T03:58:07;26.75;;;13.98;;
74320;SDS011;62738;45.772;4.804;2023-02-15T04:00:57;28.35;;;14.98;;
74320;SDS011;62738;45.772;4.804;2023-02-15T04:03:55;27.15;;;14.45;;
74320;SDS011;62738;45.772;4.804;2023-02-15T04:06:27;26.08;;;14.25;;
74320;SDS011;62738;45.772;4.804;2023-02-15T04:08:54;30.10;;;14.98;;
74320;SDS011;62738;45.772;4.804;2023-02-15T04:11:40;29.13;;;15.30;;
74320;SDS011;62738;45.772;4.804;2023-02-15T04:14:07;28.65;;;15.05;;
74320;SDS011;62738;45.772;4.804;2023-02-15T04:16:53;27.15;;;15.55;;
74320;SDS011;62738;45.772;4.804;2023-02-15T04:19:20;29.33;;;15.50;;
74320;SDS011;62738;45.772;4.804;2023-02-15T04:22:05;33.05;;;15.73;;
74320;SDS011;62738;45.772;4.804;2023-02-15T04:24:50;30.15;;;14.80;;
74320;SDS011;62738;45.772;4.804;2023-02-15T04:27:35;26.38;;;14.40;;
74320;SDS011;62738;45.772;4.804;2023-02-15T04:30:03;30.45;;;15.82;;
74320;SDS011;62738;45.772;4.804;2023-02-15T04:32:30;33.83;;;15.95;;
74320;SDS011;62738;45.772;4.804;2023-02-15T04:34:57;29.45;;;15.93;;
74320;SDS011;62738;45.772;4.804;2023-02-15T04:37:24;30.58;;;16.00;;
74320;SDS011;62738;45.772;4.804;2023-02-15T04:39:51;30.10;;;16.58;;
74320;SDS011;62738;45.772;4.804;2023-02-15T04:42:17;29.55;;;15.57;;
74320;SDS011;62738;45.772;4.804;2023-02-15T04:44:44;29.15;;;15.35;;
74320;SDS011;62738;45.772;4.804;2023-02-15T04:47:11;32.53;;;15.55;;
74320;SDS011;62738;45.772;4.804;2023-02-15T04:49:38;30.55;;;16.65;;
74320;SDS011;62738;45.772;4.804;2023-02-15T04:52:04;32.70;;;15.52;;
74320;SDS011;62738;45.772;4.804;2023-02-15T04:54:31;31.42;;;15.75;;
74320;SDS011;62738;45.772;4.804;2023-02-15T04:56:57;27.77;;;14.27;;
74320;SDS011;62738;45.772;4.804;2023-02-15T04:59:24;29.88;;;15.25;;
74320;SDS011;62738;45.772;4.804;2023-02-15T05:01:51;30.27;;;15.55;;
74320;SDS011;62738;45.772;4.804;2023-02-15T05:04:18;30.90;;;15.48;;
74320;SDS011;62738;45.772;4.804;2023-02-15T05:06:44;28.52;;;15.65;;
74320;SDS011;62738;45.772;4.804;2023-02-15T05:09:11;28.90;;;14.75;;
74320;SDS011;62738;45.772;4.804;2023-02-15T05:11:39;30.60;;;16.25;;
74320;SDS011;62738;45.772;4.804;2023-02-15T05:14:05;30.23;;;14.55;;
74320;SDS011;62738;45.772;4.804;2023-02-15T05:16:32;26.05;;;14.43;;
74320;SDS011;62738;45.772;4.804;2023-02-15T05:18:59;30.30;;;15.05;;
74320;SDS011;62738;45.772;4.804;2023-02-15T05:21:26;27.05;;;15.02;;
74320;SDS011;62738;45.772;4.804;2023-02-15T05:23:53;30.55;;;15.88;;
74320;SDS011;62738;45.772;4.804;2023-02-15T05:26:20;28.75;;;15.57;;
74320;SDS011;62738;45.772;4.804;2023-02-15T05:29:08;30.13;;;15.32;;
74320;SDS011;62738;45.772;4.804;2023-02-15T05:31:35;26.23;;;14.18;;
74320;SDS011;62738;45.772;4.804;2023-02-15T05:34:03;29.08;;;15.70;;
74320;SDS011;62738;45.772;4.804;2023-02-15T05:36:29;31.83;;;15.55;;
74320;SDS011;62738;45.772;4.804;2023-02-15T05:38:56;29.70;;;16.00;;
74320;SDS011;62738;45.772;4.804;2023-02-15T05:41:23;29.85;;;15.65;;
74320;SDS011;62738;45.772;4.804;2023-02-15T05:43:50;31.70;;;15.45;;
74320;SDS011;62738;45.772;4.804;2023-02-15T05:46:17;30.08;;;16.67;;
74320;SDS011;62738;45.772;4.804;2023-02-15T05:48:43;33.00;;;16.98;;
74320;SDS011;62738;45.772;4.804;2023-02-15T05:51:11;32.55;;;16.77;;
74320;SDS011;62738;45.772;4.804;2023-02-15T05:53:39;28.83;;;16.42;;
74320;SDS011;62738;45.772;4.804;2023-02-15T05:56:08;34.50;;;16.48;;
74320;SDS011;62738;45.772;4.804;2023-02-15T05:58:36;31.95;;;17.27;;
74320;SDS011;62738;45.772;4.804;2023-02-15T06:01:08;37.25;;;17.65;;
74320;SDS011;62738;45.772;4.804;2023-02-15T06:03:36;32.95;;;17.38;;
74320;SDS011;62738;45.772;4.804;2023-02-15T06:06:03;29.77;;;16.17;;
74320;SDS011;62738;45.772;4.804;2023-02-15T06:08:31;32.78;;;17.45;;
74320;SDS011;62738;45.772;4.804;2023-02-15T06:10:58;32.80;;;16.95;;
74320;SDS011;62738;45.772;4.804;2023-02-15T06:13:24;33.78;;;17.70;;
74320;SDS011;62738;45.772;4.804;2023-02-15T06:15:51;35.13;;;17.08;;
74320;SDS011;62738;45.772;4.804;2023-02-15T06:18:18;32.08;;;17.20;;
74320;SDS011;62738;45.772;4.804;2023-02-15T06:20:45;32.92;;;16.20;;
74320;SDS011;62738;45.772;4.804;2023-02-15T06:23:12;32.45;;;16.73;;
74320;SDS011;62738;45.772;4.804;2023-02-15T06:25:39;32.55;;;17.20;;
74320;SDS011;62738;45.772;4.804;2023-02-15T06:28:06;34.67;;;17.38;;
74320;SDS011;62738;45.772;4.804;2023-02-15T06:30:33;36.53;;;18.40;;
74320;SDS011;62738;45.772;4.804;2023-02-15T06:32:59;35.22;;;18.25;;
74320;SDS011;62738;45.772;4.804;2023-02-15T06:35:27;35.85;;;18.15;;
74320;SDS011;62738;45.772;4.804;2023-02-15T06:37:53;38.42;;;18.05;;
74320;SDS011;62738;45.772;4.804;2023-02-15T06:40:20;35.08;;;17.85;;
74320;SDS011;62738;45.772;4.804;2023-02-15T06:42:47;36.55;;;18.42;;
74320;SDS011;62738;45.772;4.804;2023-02-15T06:45:14;35.65;;;18.65;;
74320;SDS011;62738;45.772;4.804;2023-02-15T06:47:40;36.80;;;18.05;;
74320;SDS011;62738;45.772;4.804;2023-02-15T06:50:07;39.75;;;19.15;;
74320;SDS011;62738;45.772;4.804;2023-02-15T06:52:35;36.83;;;18.58;;
74320;SDS011;62738;45.772;4.804;2023-02-15T06:55:01;36.00;;;17.70;;
74320;SDS011;62738;45.772;4.804;2023-02-15T06:57:28;37.03;;;18.00;;
74320;SDS011;62738;45.772;4.804;2023-02-15T06:59:55;36.65;;;17.85;;
74320;SDS011;62738;45.772;4.804;2023-02-15T07:02:24;36.30;;;19.00;;
74320;SDS011;62738;45.772;4.804;2023-02-15T07:04:51;40.17;;;19.35;;
74320;SDS011;62738;45.772;4.804;2023-02-15T07:07:18;41.30;;;19.40;;
74320;SDS011;62738;45.772;4.804;2023-02-15T07:09:44;40.35;;;20.83;;
74320;SDS011;62738;45.772;4.804;2023-02-15T07:12:11;43.05;;;20.73;;
74320;SDS011;62738;45.772;4.804;2023-02-15T07:14:56;43.40;;;21.65;;
74320;SDS011;62738;45.772;4.804;2023-02-15T07:17:24;43.03;;;21.30;;
74320;SDS011;62738;45.772;4.804;2023-02-15T07:20:06;41.88;;;21.00;;
74320;SDS011;62738;45.772;4.804;2023-02-15T07:22:35;44.47;;;21.65;;
74320;SDS011;62738;45.772;4.804;2023-02-15T07:25:03;46.10;;;21.98;;
74320;SDS011;62738;45.772;4.804;2023-02-15T07:27:31;44.10;;;22.40;;
74320;SDS011;62738;45.772;4.804;2023-02-15T07:29:58;44.72;;;21.90;;
74320;SDS011;62738;45.772;4.804;2023-02-15T07:32:29;43.97;;;22.02;;
74320;SDS011;62738;45.772;4.804;2023-02-15T07:34:59;48.33;;;22.02;;
74320;SDS011;62738;45.772;4.804;2023-02-15T07:37:26;47.47;;;22.35;;
74320;SDS011;62738;45.772;4.804;2023-02-15T07:39:53;48.88;;;24.52;;
74320;SDS011;62738;45.772;4.804;2023-02-15T07:42:20;48.47;;;23.70;;
74320;SDS011;62738;45.772;4.804;2023-02-15T07:44:48;47.17;;;23.60;;
74320;SDS011;62738;45.772;4.804;2023-02-15T07:47:15;48.08;;;23.92;;
74320;SDS011;62738;45.772;4.804;2023-02-15T07:49:42;49.10;;;23.85;;
74320;SDS011;62738;45.772;4.804;2023-02-15T07:52:09;49.88;;;24.30;;
74320;SDS011;62738;45.772;4.804;2023-02-15T07:54:35;51.40;;;24.92;;
74320;SDS011;62738;45.772;4.804;2023-02-15T07:57:02;51.03;;;23.60;;
74320;SDS011;62738;45.772;4.804;2023-02-15T07:59:29;50.50;;;25.38;;
74320;SDS011;62738;45.772;4.804;2023-02-15T08:01:55;46.90;;;24.35;;
74320;SDS011;62738;45.772;4.804;2023-02-15T08:04:23;45.67;;;23.42;;
74320;SDS011;62738;45.772;4.804;2023-02-15T08:06:53;51.65;;;25.25;;
74320;SDS011;62738;45.772;4.804;2023-02-15T08:09:20;46.38;;;23.83;;
74320;SDS011;62738;45.772;4.804;2023-02-15T08:11:48;49.67;;;24.40;;
74320;SDS011;62738;45.772;4.804;2023-02-15T08:16:47;49.33;;;24.02;;
74320;SDS011;62738;45.772;4.804;2023-02-15T08:21:46;49.00;;;24.05;;
74320;SDS011;62738;45.772;4.804;2023-02-15T08:24:15;51.65;;;24.25;;
74320;SDS011;62738;45.772;4.804;2023-02-15T08:26:44;48.90;;;24.60;;
74320;SDS011;62738;45.772;4.804;2023-02-15T08:29:14;50.22;;;24.35;;
74320;SDS011;62738;45.772;4.804;2023-02-15T08:31:42;47.22;;;24.30;;
74320;SDS011;62738;45.772;4.804;2023-02-15T08:34:10;51.10;;;24.15;;
74320;SDS011;62738;45.772;4.804;2023-02-15T08:36:39;48.95;;;24.73;;
74320;SDS011;62738;45.772;4.804;2023-02-15T08:39:06;51.20;;;24.80;;
74320;SDS011;62738;45.772;4.804;2023-02-15T08:41:37;50.53;;;24.77;;
74320;SDS011;62738;45.772;4.804;2023-02-15T08:44:05;53.78;;;25.70;;
74320;SDS011;62738;45.772;4.804;2023-02-15T08:46:35;52.30;;;25.77;;
74320;SDS011;62738;45.772;4.804;2023-02-15T08:49:06;49.95;;;24.30;;
74320;SDS011;62738;45.772;4.804;2023-02-15T08:51:34;45.30;;;23.67;;
74320;SDS011;62738;45.772;4.804;2023-02-15T08:54:04;45.25;;;22.75;;
74320;SDS011;62738;45.772;4.804;2023-02-15T08:56:34;48.50;;;23.17;;
74320;SDS011;62738;45.772;4.804;2023-02-15T08:59:02;40.35;;;22.35;;
74320;SDS011;62738;45.772;4.804;2023-02-15T09:01:31;41.30;;;22.45;;
74320;SDS011;62738;45.772;4.804;2023-02-15T09:04:01;45.22;;;24.10;;
74320;SDS011;62738;45.772;4.804;2023-02-15T09:06:30;43.67;;;22.70;;
74320;SDS011;62738;45.772;4.804;2023-02-15T09:08:57;40.60;;;20.90;;
74320;SDS011;62738;45.772;4.804;2023-02-15T09:11:26;36.67;;;20.13;;
74320;SDS011;62738;45.772;4.804;2023-02-15T09:14:01;37.20;;;20.77;;
74320;SDS011;62738;45.772;4.804;2023-02-15T09:16:30;42.28;;;21.17;;
74320;SDS011;62738;45.772;4.804;2023-02-15T09:18:58;40.05;;;21.83;;
74320;SDS011;62738;45.772;4.804;2023-02-15T09:21:25;36.63;;;20.00;;
74320;SDS011;62738;45.772;4.804;2023-02-15T09:23:55;36.28;;;20.98;;
74320;SDS011;62738;45.772;4.804;2023-02-15T09:26:23;35.90;;;19.70;;
74320;SDS011;62738;45.772;4.804;2023-02-15T09:28:51;37.08;;;18.75;;
74320;SDS011;62738;45.772;4.804;2023-02-15T09:31:22;35.40;;;19.73;;
74320;SDS011;62738;45.772;4.804;2023-02-15T09:33:51;34.55;;;19.67;;
74320;SDS011;62738;45.772;4.804;2023-02-15T09:36:25;35.20;;;19.52;;
74320;SDS011;62738;45.772;4.804;2023-02-15T09:38:58;38.58;;;20.95;;
74320;SDS011;62738;45.772;4.804;2023-02-15T09:50:13;35.45;;;19.13;;
74320;SDS011;62738;45.772;4.804;2023-02-15T10:10:40;29.92;;;17.83;;
74320;SDS011;62738;45.772;4.804;2023-02-15T10:15:57;33.95;;;19.00;;
74320;SDS011;62738;45.772;4.804;2023-02-15T10:24:36;31.45;;;16.98;;
74320;SDS011;62738;45.772;4.804;2023-02-15T10:27:23;33.33;;;17.80;;
74320;SDS011;62738;45.772;4.804;2023-02-15T10:32:28;31.65;;;18.05;;
74320;SDS011;62738;45.772;4.804;2023-02-15T10:35:19;34.15;;;18.23;;
74320;SDS011;62738;45.772;4.804;2023-02-15T10:51:10;31.05;;;17.15;;
74320;SDS011;62738;45.772;4.804;2023-02-15T11:06:50;29.08;;;16.85;;
74320;SDS011;62738;45.772;4.804;2023-02-15T11:09:21;30.02;;;17.70;;
74320;SDS011;62738;45.772;4.804;2023-02-15T11:11:51;27.38;;;15.75;;
74320;SDS011;62738;45.772;4.804;2023-02-15T11:14:23;28.58;;;16.63;;
74320;SDS011;62738;45.772;4.804;2023-02-15T11:17:28;28.80;;;16.67;;
74320;SDS011;62738;45.772;4.804;2023-02-15T11:19:58;27.92;;;15.55;;
74320;SDS011;62738;45.772;4.804;2023-02-15T11:22:47;26.20;;;15.38;;
74320;SDS011;62738;45.772;4.804;2023-02-15T11:25:17;27.95;;;15.80;;
74320;SDS011;62738;45.772;4.804;2023-02-15T11:27:47;26.95;;;15.90;;
74320;SDS011;62738;45.772;4.804;2023-02-15T11:30:20;27.77;;;17.25;;
74320;SDS011;62738;45.772;4.804;2023-02-15T11:32:52;25.75;;;15.60;;
74320;SDS011;62738;45.772;4.804;2023-02-15T11:35:32;27.75;;;15.70;;
74320;SDS011;62738;45.772;4.804;2023-02-15T11:38:09;25.42;;;15.25;;
74320;SDS011;62738;45.772;4.804;2023-02-15T11:40:47;25.42;;;15.82;;
74320;SDS011;62738;45.772;4.804;2023-02-15T11:46:14;28.10;;;15.50;;
74320;SDS011;62738;45.772;4.804;2023-02-15T11:48:41;27.73;;;15.00;;
74320;SDS011;62738;45.772;4.804;2023-02-15T11:51:09;25.80;;;15.90;;
74320;SDS011;62738;45.772;4.804;2023-02-15T11:53:40;24.33;;;14.95;;
74320;SDS011;62738;45.772;4.804;2023-02-15T11:56:12;27.58;;;15.95;;
74320;SDS011;62738;45.772;4.804;2023-02-15T11:58:45;26.38;;;14.95;;
74320;SDS011;62738;45.772;4.804;2023-02-15T12:04:03;26.40;;;14.38;;
74320;SDS011;62738;45.772;4.804;2023-02-15T12:06:49;25.95;;;15.00;;
74320;SDS011;62738;45.772;4.804;2023-02-15T12:10:29;24.35;;;14.25;;
74320;SDS011;62738;45.772;4.804;2023-02-15T12:12:38;25.90;;;14.80;;
74320;SDS011;62738;45.772;4.804;2023-02-15T12:15:08;23.70;;;15.68;;
74320;SDS011;62738;45.772;4.804;2023-02-15T12:20:32;24.50;;;14.25;;
74320;SDS011;62738;45.772;4.804;2023-02-15T12:23:12;24.85;;;14.65;;
74320;SDS011;62738;45.772;4.804;2023-02-15T12:26:01;23.13;;;14.18;;
74320;SDS011;62738;45.772;4.804;2023-02-15T12:28:32;24.60;;;14.68;;
74320;SDS011;62738;45.772;4.804;2023-02-15T12:31:07;22.02;;;13.43;;
74320;SDS011;62738;45.772;4.804;2023-02-15T12:33:45;24.67;;;14.23;;
74320;SDS011;62738;45.772;4.804;2023-02-15T12:36:22;22.80;;;14.13;;
74320;SDS011;62738;45.772;4.804;2023-02-15T12:41:38;22.75;;;14.02;;
74320;SDS011;62738;45.772;4.804;2023-02-15T12:44:17;22.17;;;13.43;;
74320;SDS011;62738;45.772;4.804;2023-02-15T12:47:17;23.38;;;13.60;;
74320;SDS011;62738;45.772;4.804;2023-02-15T12:49:42;18.67;;;12.68;;
74320;SDS011;62738;45.772;4.804;2023-02-15T12:54:46;23.02;;;14.23;;
74320;SDS011;62738;45.772;4.804;2023-02-15T13:02:48;19.70;;;13.30;;
74320;SDS011;62738;45.772;4.804;2023-02-15T13:08:11;22.33;;;12.45;;
74320;SDS011;62738;45.772;4.804;2023-02-15T13:10:51;21.13;;;12.50;;
74320;SDS011;62738;45.772;4.804;2023-02-15T13:13:46;19.17;;;12.18;;
74320;SDS011;62738;45.772;4.804;2023-02-15T13:16:19;20.20;;;12.25;;
74320;SDS011;62738;45.772;4.804;2023-02-15T13:18:55;17.58;;;11.10;;
74320;SDS011;62738;45.772;4.804;2023-02-15T13:21:25;18.70;;;11.38;;
74320;SDS011;62738;45.772;4.804;2023-02-15T13:23:57;17.77;;;11.93;;
74320;SDS011;62738;45.772;4.804;2023-02-15T13:26:29;18.00;;;12.05;;
74320;SDS011;62738;45.772;4.804;2023-02-15T13:28:58;19.95;;;11.77;;
74320;SDS011;62738;45.772;4.804;2023-02-15T13:31:34;20.10;;;11.02;;
74320;SDS011;62738;45.772;4.804;2023-02-15T13:34:09;17.25;;;10.77;;
74320;SDS011;62738;45.772;4.804;2023-02-15T13:36:54;17.38;;;11.35;;
74320;SDS011;62738;45.772;4.804;2023-02-15T13:39:44;15.50;;;10.25;;
74320;SDS011;62738;45.772;4.804;2023-02-15T13:50:36;22.58;;;12.02;;
74320;SDS011;62738;45.772;4.804;2023-02-15T14:30:14;19.45;;;10.20;;
74320;SDS011;62738;45.772;4.804;2023-02-15T14:32:48;15.55;;;9.50;;
74320;SDS011;62738;45.772;4.804;2023-02-15T14:35:18;16.17;;;10.27;;
74320;SDS011;62738;45.772;4.804;2023-02-15T14:43:14;16.48;;;9.73;;
74320;SDS011;62738;45.772;4.804;2023-02-15T14:45:55;14.95;;;9.80;;
74320;SDS011;62738;45.772;4.804;2023-02-15T14:48:26;17.30;;;10.60;;
74320;SDS011;62738;45.772;4.804;2023-02-15T14:50:57;15.77;;;9.73;;
74320;SDS011;62738;45.772;4.804;2023-02-15T14:56:16;16.75;;;9.35;;
74320;SDS011;62738;45.772;4.804;2023-02-15T15:01:26;16.65;;;9.52;;
74320;SDS011;62738;45.772;4.804;2023-02-15T15:03:58;14.82;;;9.38;;
74320;SDS011;62738;45.772;4.804;2023-02-15T15:06:29;16.60;;;9.55;;
74320;SDS011;62738;45.772;4.804;2023-02-15T15:09:08;17.35;;;8.85;;
74320;SDS011;62738;45.772;4.804;2023-02-15T15:11:43;14.20;;;9.02;;
74320;SDS011;62738;45.772;4.804;2023-02-15T15:14:48;14.63;;;9.88;;
74320;SDS011;62738;45.772;4.804;2023-02-15T15:17:13;16.17;;;10.00;;
74320;SDS011;62738;45.772;4.804;2023-02-15T15:20:14;17.10;;;10.20;;
74320;SDS011;62738;45.772;4.804;2023-02-15T15:25:48;15.95;;;9.70;;
74320;SDS011;62738;45.772;4.804;2023-02-15T15:37:18;17.17;;;10.00;;
74320;SDS011;62738;45.772;4.804;2023-02-15T15:42:04;16.77;;;10.52;;
74320;SDS011;62738;45.772;4.804;2023-02-15T15:50:23;16.63;;;9.82;;
74320;SDS011;62738;45.772;4.804;2023-02-15T15:52:51;19.25;;;9.73;;
74320;SDS011;62738;45.772;4.804;2023-02-15T15:55:25;19.20;;;9.88;;
74320;SDS011;62738;45.772;4.804;2023-02-15T15:57:54;16.35;;;9.93;;
74320;SDS011;62738;45.772;4.804;2023-02-15T16:00:30;15.98;;;10.07;;
74320;SDS011;62738;45.772;4.804;2023-02-15T16:03:01;17.75;;;10.10;;
74320;SDS011;62738;45.772;4.804;2023-02-15T16:05:35;15.30;;;9.70;;
74320;SDS011;62738;45.772;4.804;2023-02-15T16:08:03;16.75;;;10.35;;
74320;SDS011;62738;45.772;4.804;2023-02-15T16:10:30;15.75;;;10.05;;
74320;SDS011;62738;45.772;4.804;2023-02-15T16:13:01;16.58;;;9.68;;
74320;SDS011;62738;45.772;4.804;2023-02-15T16:18:03;15.07;;;9.43;;
74320;SDS011;62738;45.772;4.804;2023-02-15T16:20:31;14.05;;;9.13;;
74320;SDS011;62738;45.772;4.804;2023-02-15T16:23:16;19.15;;;10.25;;
74320;SDS011;62738;45.772;4.804;2023-02-15T16:29:12;17.83;;;10.98;;
74320;SDS011;62738;45.772;4.804;2023-02-15T16:32:00;20.80;;;11.57;;
74320;SDS011;62738;45.772;4.804;2023-02-15T16:34:28;20.92;;;12.07;;
74320;SDS011;62738;45.772;4.804;2023-02-15T16:37:17;18.13;;;10.40;;
74320;SDS011;62738;45.772;4.804;2023-02-15T16:39:45;18.35;;;9.77;;
74320;SDS011;62738;45.772;4.804;2023-02-15T16:42:14;21.63;;;11.35;;
74320;SDS011;62738;45.772;4.804;2023-02-15T16:44:43;21.05;;;10.63;;
74320;SDS011;62738;45.772;4.804;2023-02-15T16:47:14;18.95;;;10.65;;
74320;SDS011;62738;45.772;4.804;2023-02-15T16:49:51;19.10;;;9.45;;
74320;SDS011;62738;45.772;4.804;2023-02-15T16:52:23;20.48;;;9.98;;
74320;SDS011;62738;45.772;4.804;2023-02-15T16:54:56;22.25;;;10.65;;
74320;SDS011;62738;45.772;4.804;2023-02-15T16:57:26;19.90;;;9.80;;
74320;SDS011;62738;45.772;4.804;2023-02-15T17:02:27;18.98;;;9.02;;
74320;SDS011;62738;45.772;4.804;2023-02-15T17:05:16;23.80;;;10.23;;
74320;SDS011;62738;45.772;4.804;2023-02-15T17:10:43;22.80;;;11.07;;
74320;SDS011;62738;45.772;4.804;2023-02-15T17:13:13;23.23;;;11.75;;
74320;SDS011;62738;45.772;4.804;2023-02-15T17:20:57;24.10;;;11.00;;
74320;SDS011;62738;45.772;4.804;2023-02-15T17:23:29;25.83;;;10.73;;
74320;SDS011;62738;45.772;4.804;2023-02-15T17:25:59;27.50;;;11.10;;
74320;SDS011;62738;45.772;4.804;2023-02-15T17:28:36;20.52;;;10.27;;
74320;SDS011;62738;45.772;4.804;2023-02-15T17:31:06;20.35;;;10.73;;
74320;SDS011;62738;45.772;4.804;2023-02-15T17:33:36;24.10;;;11.07;;
74320;SDS011;62738;45.772;4.804;2023-02-15T17:36:18;23.83;;;10.95;;
74320;SDS011;62738;45.772;4.804;2023-02-15T17:41:23;21.95;;;11.90;;
74320;SDS011;62738;45.772;4.804;2023-02-15T17:43:51;20.08;;;10.73;;
74320;SDS011;62738;45.772;4.804;2023-02-15T17:46:17;20.42;;;11.50;;
74320;SDS011;62738;45.772;4.804;2023-02-15T17:48:48;24.63;;;10.93;;
74320;SDS011;62738;45.772;4.804;2023-02-15T17:51:17;23.85;;;11.50;;
74320;SDS011;62738;45.772;4.804;2023-02-15T17:53:46;19.10;;;10.73;;
74320;SDS011;62738;45.772;4.804;2023-02-15T17:56:35;23.65;;;11.57;;
74320;SDS011;62738;45.772;4.804;2023-02-15T17:59:03;21.85;;;11.68;;
74320;SDS011;62738;45.772;4.804;2023-02-15T18:01:33;21.30;;;12.43;;
74320;SDS011;62738;45.772;4.804;2023-02-15T18:04:20;19.95;;;11.43;;
74320;SDS011;62738;45.772;4.804;2023-02-15T18:07:07;25.60;;;12.00;;
74320;SDS011;62738;45.772;4.804;2023-02-15T18:09:54;22.63;;;11.35;;
74320;SDS011;62738;45.772;4.804;2023-02-15T18:12:38;28.77;;;12.05;;
74320;SDS011;62738;45.772;4.804;2023-02-15T18:15:06;27.63;;;11.85;;
74320;SDS011;62738;45.772;4.804;2023-02-15T18:17:38;24.63;;;11.98;;
74320;SDS011;62738;45.772;4.804;2023-02-15T18:22:44;21.80;;;11.35;;
74320;SDS011;62738;45.772;4.804;2023-02-15T18:25:12;26.83;;;12.60;;
74320;SDS011;62738;45.772;4.804;2023-02-15T18:27:39;23.42;;;12.20;;
74320;SDS011;62738;45.772;4.804;2023-02-15T18:30:06;22.05;;;11.45;;